TOURFACTS.DK  
Stats and Facts from Tour de France.

Tour de France 2018 starts in 12 days
  Riders   Stages   Teams   Summits   Yearly  


 
Search by year

After 2017 - Stage 21:
 14824 starters.
  5132 different riders.
  639 teams.
  2232 stages.
  456 restdays.
  439589.60 km.
  5653 abandonnees.


Top 3
GC
Christopher Froome86:20:55
Rigoberto Urán86:21:49
Romain Bardet86:23:15
Climb
Warren Barguil169 pt.
Primoz Roglic80 pt.
Thomas De Gendt64 pt.
Sprint
Michael Matthews359 pt.
André Greipel234 pt.
Edvald Boasson Hagen220 pt.
Youth
Simon Yates86:27:09
Louis Meintjes86:29:15
Emanuel Buchmann86:54:16
Facts from Tour de France 1949
  |   Stages.  |   Stage winners.  |   Days in yellow  |   Average speed.  |   Route.  |   Teams.  |   All riders.  |   Rookies.  |  

  |   Withdrawls.  |   GC.  |   Polka  |   Green  |   White  |   Summits. (In tour)  |   Miscellaneous.  |  

Stage 9 on 09 - 07 - 1949
         Owning:    Jacques Marinelli    
Pick a stage:  1 2 3 4 5 6 7 8 9 10 11 12 13 14 15 16 17 18 19 20 21
  BordeauxSan-Sebastian | Dist: 228.00 km.

Average speed for all riders in stage:  34,464 km./hr.
    Place:Name:Team:Time:Km/h:
FRALouis CaputFRAIle De France06:30:49  +  00:00:00=35,004 
BELStan OckersBELBelgium06:30:49  +  00:00:00=35,004 
ITALuciano PezziITAItaly06:30:49  +  00:00:00=35,004 
4 BELMarcel De MulderBELAiglons Belges06:30:49  +  00:00:00=35,004 
5 BELMarcel DupontBELAiglons Belges06:30:49  +  00:00:00=35,004 
6 ITAGino SciardisITAItaly06:32:20  +  00:01:31=34,868 
7 FRARobert ChapatteFRAFrance06:32:20  +  00:01:31=34,868 
8 FRAPierre CoganFRAWest-North06:32:20  +  00:01:31=34,868 
9 FRARoger LevequeFRACenter-South West06:32:20  +  00:01:31=34,868 
10 LUXJean KirchenLUXLuxembourg06:32:20  +  00:01:31=34,868 
11 LUXJean DiederichLUXLuxembourg06:32:20  +  00:01:31=34,868 
12 ITAÉdouard FachleitnerFRASouth-East06:32:20  +  00:01:31=34,868 
13 FRAJean-Apotre LazaridesFRAFrance06:32:26  +  00:01:37=34,859 
14 FRAAndre MahéFRAWest-North06:33:23  +  00:02:34=34,775 
15 FRAAntonin RollandFRASouth-East06:33:23  +  00:02:34=34,775 
16 FRAPaul PineauFRACenter-South West06:33:26  +  00:02:37=34,771 
17 FRAJean-Marie GoasmatFRAWest-North06:33:26  +  00:02:37=34,771 
18 BELMarcel HendrickxBELAiglons Belges06:34:28  +  00:03:39=34,680 
19 BELRik Van SteenbergenBELBelgium06:34:40  +  00:03:51=34,662 
20 FRAMaurice DiotFRAFrance06:34:40  +  00:03:51=34,662 
21 MARCustodio Dos ReisFRACenter-South West06:34:40  +  00:03:51=34,662 
22 BELFlorent MathieuBELBelgium06:34:40  +  00:03:51=34,662 
23 NEDHenk de HoogNLDHolland06:34:40  +  00:03:51=34,662 
24 ITAAlfredo MartiniITACadetti Italiens06:34:40  +  00:03:51=34,662 
25 ITAArmando PeverelliITACadetti Italiens06:34:40  +  00:03:51=34,662 
26 FRALucien TeisseireFRAFrance06:34:40  +  00:03:51=34,662 
27 LUXJean GoldschmitLUXLuxembourg06:34:40  +  00:03:51=34,662 
28 ITASylvio PedroniITACadetti Italiens06:34:40  +  00:03:51=34,662 
29 ITAVittorio MagniITACadetti Italiens06:34:40  +  00:03:51=34,662 
30 BELJoseph VerhaertBELAiglons Belges06:34:40  +  00:03:51=34,662 
31 ITAAdolphe DeleddaFRASouth-East06:34:40  +  00:03:51=34,662 
32 ITAFermo CamelliniFRASouth-East06:34:40  +  00:03:51=34,662 
33 FRAHenri MassalFRACenter-South West06:34:40  +  00:03:51=34,662 
34 FRARobert DesbatsFRACenter-South West06:34:40  +  00:03:51=34,662 
35 FRAGeorges MartinFRASouth-East06:34:40  +  00:03:51=34,662 
36 FRAJean RobicFRAWest-North06:34:40  +  00:03:51=34,662 
37 FRAGuy LapébieFRAFrance06:34:40  +  00:03:51=34,662 
38 FRAJacques MarinelliFRAIle De France06:34:40  +  00:03:51=34,662 
39 FRAEmile IdéeFRAIle De France06:34:40  +  00:03:51=34,662 
40 FRAAndré BruléFRAIle De France06:34:40  +  00:03:51=34,662 
41 FRAPaul GiguetFRASouth-East06:34:40  +  00:03:51=34,662 
42 LUXMarcel ErnzerLUXLuxembourg06:34:40  +  00:03:51=34,662 
43 ITAEttore MilanoITAItaly06:34:40  +  00:03:51=34,662 
44 FRALouis DeprezFRAFrance06:34:40  +  00:03:51=34,662 
45 FRACamille DanguillaumeFRAFrance06:34:40  +  00:03:51=34,662 
46 ITABruno PasquiniITAItaly06:34:40  +  00:03:51=34,662 
47 BELEdward Van DijckBELBelgium06:34:40  +  00:03:51=34,662 
48 ITAVincenzo RosselloITAItaly06:34:40  +  00:03:51=34,662 
49 BELRaymond ImpanisBELBelgium06:34:40  +  00:03:51=34,662 
50 BELDésiré KeteleerBELBelgium06:34:40  +  00:03:51=34,662 
51 BELRoger LambrechtBELBelgium06:34:40  +  00:03:51=34,662 
52 ITAGiuseppe TaccaFRAIle De France06:34:40  +  00:03:51=34,662 
53 ITAFausto CoppiITAItaly06:34:40  +  00:03:51=34,662 
54 ITAGino BartaliITAItaly06:34:40  +  00:03:51=34,662 
55 FRARené ViettoFRAFrance06:34:40  +  00:03:51=34,662 
56 SUIGeorges AeschlimannCHESwitzerland06:34:40  +  00:03:51=34,662 
57 ITASerifano BiagioniITAItaly06:34:40  +  00:03:51=34,662 
58 SUIFerdi KüblerCHESwitzerland06:34:40  +  00:03:51=34,662 
59 NEDWim De RuyterNLDHolland06:36:28  +  00:05:39=34,505 
60 ITANello LaurediFRASouth-East06:36:28  +  00:05:39=34,505 
61 SUIPierre BrambillaFRASouth-East06:36:28  +  00:05:39=34,505 
62 BELBriek SchotteBELBelgium06:36:28  +  00:05:39=34,505 
63 FRAGeorges RamouluxFRACenter-South West06:36:28  +  00:05:39=34,505 
64 FRARoger Le NizerhyFRAWest-North06:39:00  +  00:08:11=34,286 
65 BELMarcel KintBELBelgium06:39:00  +  00:08:11=34,286 
66 FRAJean BlancFRACenter-South West06:40:25  +  00:09:36=34,164 
67 FRAAlbert DolhatsFRACenter-South West06:41:25  +  00:10:36=34,079 
68 ITAGiovanni CorrieriITAItaly06:41:25  +  00:10:36=34,079 
69 ITAAngelo BrignoleITAItaly06:41:25  +  00:10:36=34,079 
70 FRARaymond LucasFRAIle De France06:42:04  +  00:11:15=34,024 
71 BELNorbert CallensBELBelgium06:44:05  +  00:13:16=33,854 
72 FRALucien LazaridesFRAFrance06:44:05  +  00:13:16=33,854 
73 ITAGiuseppe AusendaITACadetti Italiens06:44:05  +  00:13:16=33,854 
74 FRARaphaël GeminianiFRAFrance06:44:05  +  00:13:16=33,854 
75 SUIRoger AeschlimannCHESwitzerland06:44:05  +  00:13:16=33,854 
76 NEDFrans PauwelsNLDHolland06:44:05  +  00:13:16=33,854 
77 BELRoger GhyselinckBELBelgium06:44:05  +  00:13:16=33,854 
78 FRAJean ReyFRASouth-East06:44:05  +  00:13:16=33,854 
79 SUIGottfried WeilenmannCHESwitzerland06:45:05  +  00:14:16=33,771 
80 ITAMario RicciITAItaly06:46:40  +  00:15:51=33,639 
81 ITAGuido De SantiITAItaly06:46:41  +  00:15:52=33,638 
82 BELJacques GeusBELAiglons Belges06:46:52  +  00:16:03=33,623 
83 GERCésar MarcelakFRAWest-North06:49:04  +  00:18:15=33,442 
84 FRABernard GauthierFRAFrance06:51:44  +  00:20:55=33,225 
85 FRALouison BobetFRAFrance06:51:44  +  00:20:55=33,225 
86 FRAEdouard MullerFRAIle De France06:51:44  +  00:20:55=33,225 


Todays birthdays.

1875  Jules Sales
1888  Leon Lannoy
1922  Henri Surbatis
1932  Ferdinand Devèze
1939  Dieter Puschel
1961  Gerhard Zadrobilek
1964  Javier Duch
1965  Clarence Knickman
1968  Michael Sandstød
1986  Simon Spilak




Visits: